Time;durP1;ratioP1;P1;durP2;ratioP2;P2;SDS_P1;SDS_P2;PMS_P1;PMS_P2;Temp;Humidity;BMP_temperature;BMP_pressure;BME280_temperature;BME280_humidity;BME280_pressure;Samples;Min_cycle;Max_cycle;Signal;HPM_P1;HPM_P2
2023/08/12 00:00:56;;;;;;;4.82;3.30;;;;;;;23.82;59.45;97422.97;4967078;28;20082;-90
2023/08/12 00:03:21;;;;;;;3.58;3.22;;;;;;;23.83;59.12;97413.09;4943986;29;20146;-90
2023/08/12 00:05:47;;;;;;;4.03;3.72;;;;;;;23.96;59.27;97428.00;4945982;29;20050;-88
2023/08/12 00:08:12;;;;;;;4.55;4.03;;;;;;;23.84;58.67;97412.00;4948723;29;20130;-90
2023/08/12 00:10:38;;;;;;;4.25;3.95;;;;;;;23.83;58.79;97421.06;4957119;28;20031;-91
2023/08/12 00:13:03;;;;;;;4.55;4.15;;;;;;;23.87;59.37;97425.44;4943687;28;20436;-89
2023/08/12 00:15:29;;;;;;;4.72;4.32;;;;;;;23.65;59.27;97396.50;4962168;29;20431;-90
2023/08/12 00:17:54;;;;;;;4.18;3.75;;;;;;;23.68;59.97;97401.94;4941892;29;20090;-89
2023/08/12 00:20:20;;;;;;;4.22;3.83;;;;;;;23.72;59.75;97413.47;4930291;29;20526;-90
2023/08/12 00:22:46;;;;;;;4.18;3.60;;;;;;;23.78;59.42;97416.69;4927484;29;20024;-90
2023/08/12 00:25:11;;;;;;;4.45;3.60;;;;;;;23.75;59.77;97407.50;4946177;28;20027;-90
2023/08/12 00:27:37;;;;;;;4.35;3.97;;;;;;;23.89;59.20;97419.78;4977791;28;20042;-89
2023/08/12 00:30:04;;;;;;;4.13;3.72;;;;;;;23.70;59.42;97383.78;4955481;29;20035;-91
2023/08/12 00:32:29;;;;;;;4.10;3.75;;;;;;;23.93;59.23;97412.69;4952530;28;20054;-89
2023/08/12 00:50:25;;;;;;;3.88;3.63;;;;;;;24.23;58.37;97428.56;5595743;23;20058;-84
2023/08/12 01:03:05;;;;;;;4.18;3.80;;;;;;;23.97;58.14;97471.34;4988421;28;20066;-87
2023/08/12 01:05:31;;;;;;;4.53;4.10;;;;;;;23.86;59.00;97474.38;4976215;28;20035;-86
2023/08/12 01:07:56;;;;;;;4.35;3.70;;;;;;;23.82;59.04;97475.34;4986298;28;20438;-85
2023/08/12 01:10:23;;;;;;;4.60;3.53;;;;;;;23.82;59.31;97472.69;4955868;28;20049;-85
2023/08/12 01:13:06;;;;;;;4.32;3.92;;;;;;;23.95;59.21;97465.56;4955493;28;20039;-86
2023/08/12 01:15:33;;;;;;;5.22;4.00;;;;;;;23.86;59.78;97471.72;4954379;28;20137;-86
2023/08/12 01:18:00;;;;;;;4.70;4.22;;;;;;;23.90;59.89;97482.50;4969070;28;20097;-85
2023/08/12 01:20:26;;;;;;;4.32;3.92;;;;;;;23.86;59.50;97477.03;4984548;28;20507;-86
2023/08/12 01:23:09;;;;;;;3.60;3.30;;;;;;;24.02;58.85;97469.25;4953011;28;20446;-85
2023/08/12 01:25:35;;;;;;;3.85;3.45;;;;;;;23.90;59.38;97462.00;4969082;28;20066;-85
2023/08/12 01:28:00;;;;;;;9.20;4.20;;;;;;;23.95;59.43;97465.56;4953622;28;20039;-85
2023/08/12 01:30:26;;;;;;;4.72;3.72;;;;;;;23.92;59.75;97466.97;4953192;28;20105;-84
2023/08/12 01:33:10;;;;;;;4.53;4.13;;;;;;;23.96;59.47;97477.75;4985948;28;20142;-86
2023/08/12 01:35:40;;;;;;;4.20;3.90;;;;;;;23.99;59.20;97477.91;4969340;28;20034;-86
2023/08/12 01:38:06;;;;;;;3.85;3.55;;;;;;;23.96;59.66;97470.56;4969673;28;20035;-85
2023/08/12 01:40:33;;;;;;;5.50;3.83;;;;;;;23.96;59.36;97470.56;4968551;28;20538;-86
2023/08/12 01:42:58;;;;;;;4.40;3.95;;;;;;;23.98;59.21;97479.00;4979478;28;20038;-86
2023/08/12 01:45:24;;;;;;;4.65;3.85;;;;;;;23.95;59.43;97463.69;4971838;28;20097;-86
2023/08/12 01:47:51;;;;;;;5.10;4.55;;;;;;;23.98;59.63;97459.63;4956678;28;20041;-85
2023/08/12 01:50:16;;;;;;;4.35;3.97;;;;;;;24.08;59.17;97473.28;4984156;28;20038;-86
2023/08/12 01:52:42;;;;;;;4.30;4.00;;;;;;;24.12;59.42;97481.41;4985821;28;20033;-86
2023/08/12 01:55:08;;;;;;;4.40;4.00;;;;;;;24.15;60.12;97483.41;4974691;28;20367;-85
2023/08/12 01:57:33;;;;;;;4.55;4.15;;;;;;;24.17;59.99;97480.44;4975723;28;20042;-85
2023/08/12 01:59:59;;;;;;;5.25;4.40;;;;;;;24.17;60.14;97488.41;4974844;28;20029;-85
2023/08/12 02:02:27;;;;;;;4.63;4.22;;;;;;;24.29;59.48;97488.47;4962883;28;20043;-87
2023/08/12 02:04:53;;;;;;;4.57;4.18;;;;;;;24.30;60.10;97493.44;4939225;29;20080;-89
2023/08/12 02:07:18;;;;;;;5.47;4.95;;;;;;;24.46;60.40;97487.53;4955134;28;20822;-85
2023/08/12 02:09:43;;;;;;;5.97;5.43;;;;;;;24.48;60.98;97491.41;4964053;29;20026;-86
2023/08/12 02:12:09;;;;;;;5.30;4.78;;;;;;;24.48;61.04;97480.75;4981979;28;20034;-85
2023/08/12 02:14:36;;;;;;;4.70;4.30;;;;;;;24.37;62.06;97482.28;4944274;28;20490;-85
2023/08/12 02:17:01;;;;;;;6.68;4.80;;;;;;;24.25;62.61;97479.59;4940426;28;20035;-87
2023/08/12 02:19:27;;;;;;;6.28;5.50;;;;;;;24.23;63.14;97465.81;4960985;28;20069;-84
2023/08/12 02:21:52;;;;;;;5.55;5.00;;;;;;;24.33;62.95;97468.06;4940014;28;20135;-86
2023/08/12 02:24:17;;;;;;;5.43;5.03;;;;;;;24.27;63.74;97464.81;4954359;28;20082;-78
2023/08/12 02:26:46;;;;;;;5.22;4.72;;;;;;;24.15;64.40;97453.38;4938185;28;20391;-76
2023/08/12 02:29:11;;;;;;;7.25;5.45;;;;;;;24.09;65.01;97436.81;4960893;28;20518;-79
2023/08/12 02:31:36;;;;;;;5.63;4.68;;;;;;;24.05;64.84;97431.38;4950858;28;20066;-79
2023/08/12 02:34:02;;;;;;;5.65;5.15;;;;;;;24.01;64.92;97425.16;4951477;28;20546;-78
2023/08/12 02:36:28;;;;;;;6.43;5.10;;;;;;;24.01;65.10;97432.34;4951350;29;20045;-78
2023/08/12 02:38:54;;;;;;;5.57;5.07;;;;;;;23.97;65.15;97428.78;4966309;28;20394;-78
2023/08/12 02:41:19;;;;;;;5.20;4.60;;;;;;;23.99;65.24;97424.72;4959207;28;20062;-78
2023/08/12 02:43:44;;;;;;;6.30;5.70;;;;;;;23.93;66.23;97418.03;4928271;28;20038;-77
2023/08/12 02:46:10;;;;;;;4.68;4.28;;;;;;;23.93;66.06;97404.72;4940105;28;20038;-78
2023/08/12 02:48:36;;;;;;;5.45;4.95;;;;;;;23.93;65.55;97418.03;4954400;28;20023;-78
2023/08/12 02:51:01;;;;;;;5.47;4.97;;;;;;;24.03;65.15;97425.59;4953631;28;20047;-78
2023/08/12 02:53:27;;;;;;;5.13;4.72;;;;;;;23.96;65.60;97428.00;4969848;28;20101;-78
2023/08/12 02:55:52;;;;;;;5.63;5.13;;;;;;;23.92;65.87;97424.44;4953352;28;20030;-78
2023/08/12 02:58:18;;;;;;;5.68;5.07;;;;;;;23.87;65.83;97409.47;4969778;28;20085;-77
2023/08/12 03:00:46;;;;;;;6.13;5.57;;;;;;;23.86;65.49;97417.78;4953481;28;20041;-77
2023/08/12 03:03:11;;;;;;;5.82;5.28;;;;;;;23.75;65.97;97399.53;4969245;28;20034;-78
2023/08/12 03:05:37;;;;;;;5.65;5.15;;;;;;;23.80;66.42;97403.84;4969266;28;20089;-78
2023/08/12 03:08:03;;;;;;;5.90;5.40;;;;;;;23.80;65.75;97408.41;4953595;28;20039;-78
2023/08/12 03:10:29;;;;;;;5.90;5.25;;;;;;;23.76;65.81;97408.28;4965092;28;20043;-77
2023/08/12 03:12:55;;;;;;;5.85;5.30;;;;;;;23.71;66.27;97401.25;4934993;29;20494;-77
2023/08/12 03:15:21;;;;;;;6.68;6.10;;;;;;;23.71;66.62;97389.84;4969395;28;20026;-79
2023/08/12 03:17:46;;;;;;;5.57;5.07;;;;;;;23.71;66.41;97384.53;4933868;29;20039;-77
2023/08/12 03:20:12;;;;;;;5.95;5.25;;;;;;;23.74;66.75;97389.97;4934137;29;20043;-78
2023/08/12 03:22:38;;;;;;;5.78;5.25;;;;;;;23.72;66.87;97394.09;4969337;28;20034;-77
2023/08/12 03:25:04;;;;;;;6.97;6.28;;;;;;;23.67;66.34;97395.03;4953354;28;20022;-77
2023/08/12 03:27:29;;;;;;;7.20;5.20;;;;;;;23.71;67.17;97401.25;4950454;29;20075;-77
2023/08/12 03:29:55;;;;;;;6.13;5.53;;;;;;;23.71;66.31;97395.94;4929773;29;20435;-78
2023/08/12 03:32:20;;;;;;;6.65;5.97;;;;;;;23.73;66.38;97392.97;4944789;28;20033;-78
2023/08/12 03:34:46;;;;;;;5.50;5.00;;;;;;;23.70;66.77;97401.59;4953357;28;20027;-77
2023/08/12 03:37:11;;;;;;;5.40;5.00;;;;;;;23.68;66.27;97387.84;4969017;28;20126;-78
2023/08/12 03:39:37;;;;;;;5.85;5.22;;;;;;;23.67;66.30;97389.72;4950456;29;20391;-78
2023/08/12 03:42:02;;;;;;;5.50;5.00;;;;;;;23.65;66.33;97391.94;4933247;28;20065;-77
2023/08/12 03:44:27;;;;;;;6.32;5.72;;;;;;;23.64;66.15;97392.25;4933776;29;20031;-78
2023/08/12 03:46:53;;;;;;;4.88;4.45;;;;;;;23.58;66.49;97383.72;4952725;28;20030;-78
2023/08/12 03:49:18;;;;;;;5.25;4.60;;;;;;;23.60;66.12;97378.84;4950715;28;20035;-77
2023/08/12 03:51:43;;;;;;;5.20;4.70;;;;;;;23.60;66.30;97389.47;4933809;29;20392;-78
2023/08/12 03:54:09;;;;;;;5.75;5.25;;;;;;;23.55;66.47;97385.13;4936821;28;20038;-78
2023/08/12 03:56:34;;;;;;;5.85;5.35;;;;;;;23.57;66.00;97398.09;4939886;29;20027;-77
2023/08/12 03:59:00;;;;;;;6.80;5.88;;;;;;;23.54;66.35;97393.41;4933657;29;20454;-78
2023/08/12 04:01:25;;;;;;;5.90;5.40;;;;;;;23.44;66.97;97385.81;4968060;28;20066;-77
2023/08/12 04:03:50;;;;;;;6.03;5.53;;;;;;;23.42;66.74;97385.38;4969090;28;20043;-78
2023/08/12 04:06:16;;;;;;;5.97;5.47;;;;;;;23.36;67.08;97384.81;4952331;28;20059;-78
2023/08/12 04:08:41;;;;;;;5.70;5.30;;;;;;;23.47;67.11;97393.94;4932689;29;20039;-78
2023/08/12 04:11:07;;;;;;;6.38;5.78;;;;;;;23.45;66.67;97390.06;4927474;29;20027;-78
2023/08/12 04:13:32;;;;;;;6.35;5.38;;;;;;;23.48;66.91;97394.72;4933162;29;20094;-78
2023/08/12 04:15:57;;;;;;;6.57;5.40;;;;;;;23.50;66.29;97384.53;4949890;29;20410;-79
2023/08/12 04:18:23;;;;;;;6.05;5.53;;;;;;;23.49;66.12;97382.97;4964991;28;20113;-77
2023/08/12 04:20:49;;;;;;;6.25;5.65;;;;;;;23.47;66.26;97385.97;4948705;29;20053;-78
2023/08/12 04:23:15;;;;;;;5.90;5.30;;;;;;;23.40;65.93;97382.28;4949144;28;20031;-77
2023/08/12 04:25:43;;;;;;;5.65;5.05;;;;;;;23.38;66.34;97380.69;4964880;28;20039;-78
2023/08/12 04:28:09;;;;;;;5.47;4.97;;;;;;;23.32;66.59;97370.59;4950491;28;20581;-78
2023/08/12 04:30:35;;;;;;;5.50;5.00;;;;;;;23.34;66.65;97373.72;4936489;28;20355;-78
2023/08/12 04:33:00;;;;;;;5.53;5.10;;;;;;;23.29;66.18;97373.91;4952437;28;20035;-78
2023/08/12 04:35:26;;;;;;;5.68;5.20;;;;;;;23.26;66.64;97369.22;4944548;28;20283;-78
2023/08/12 04:37:51;;;;;;;6.10;5.50;;;;;;;23.24;66.74;97358.94;4945379;29;20146;-78
2023/08/12 04:40:17;;;;;;;6.38;5.78;;;;;;;23.23;66.77;97362.69;4948851;28;20035;-78
2023/08/12 04:42:42;;;;;;;5.60;5.10;;;;;;;23.22;67.01;97352.38;4933256;29;20078;-77
2023/08/12 04:45:08;;;;;;;5.65;5.15;;;;;;;23.22;67.26;97347.84;4950844;28;20766;-78
2023/08/12 04:47:33;;;;;;;6.03;5.53;;;;;;;23.30;66.88;97360.28;4964886;28;20043;-78
2023/08/12 04:49:59;;;;;;;6.22;5.72;;;;;;;23.31;66.63;97353.09;4947980;29;20043;-78
2023/08/12 04:52:25;;;;;;;6.60;6.00;;;;;;;23.29;66.48;97347.34;4965110;28;20371;-78
2023/08/12 04:54:53;;;;;;;5.70;5.20;;;;;;;23.29;66.45;97344.69;4965521;28;20061;-78
2023/08/12 04:57:18;;;;;;;5.90;5.32;;;;;;;23.26;66.61;97347.97;4951986;28;20071;-78
2023/08/12 04:59:44;;;;;;;5.80;5.22;;;;;;;23.26;66.81;97350.63;4966510;28;20085;-79
2023/08/12 05:02:09;;;;;;;5.45;4.93;;;;;;;23.24;66.74;97350.97;4966968;28;20502;-78
2023/08/12 05:04:34;;;;;;;6.15;5.55;;;;;;;23.24;66.65;97339.56;4950328;28;20066;-78
2023/08/12 05:07:00;;;;;;;5.88;5.38;;;;;;;23.23;66.50;97341.41;4951203;28;20035;-78
2023/08/12 05:09:25;;;;;;;5.20;4.68;;;;;;;23.28;66.73;97346.53;4934910;28;20702;-78
2023/08/12 05:11:51;;;;;;;6.30;5.68;;;;;;;23.37;67.45;97338.50;4967606;28;20081;-78
2023/08/12 05:14:16;;;;;;;5.93;5.35;;;;;;;23.45;66.73;97342.22;4966643;28;20446;-78
2023/08/12 05:16:42;;;;;;;6.55;5.93;;;;;;;23.51;66.88;97343.56;4966583;28;20045;-78
2023/08/12 05:19:07;;;;;;;6.25;5.75;;;;;;;23.64;66.85;97342.53;4950667;28;20479;-78
2023/08/12 05:21:32;;;;;;;6.28;5.72;;;;;;;23.79;66.33;97351.03;4951435;29;20031;-78
2023/08/12 05:23:58;;;;;;;6.18;5.68;;;;;;;23.83;66.85;97343.97;4954428;28;20047;-78
2023/08/12 05:26:23;;;;;;;6.00;5.50;;;;;;;23.85;66.78;97341.75;4971593;28;20069;-77
2023/08/12 05:28:48;;;;;;;6.93;6.25;;;;;;;23.91;66.16;97343.13;4938108;28;20062;-77
2023/08/12 05:31:14;;;;;;;6.35;5.72;;;;;;;23.89;66.58;97337.34;4970985;28;20063;-78
2023/08/12 05:33:39;;;;;;;6.30;5.70;;;;;;;23.88;66.29;97341.09;4938857;28;20162;-77
2023/08/12 05:36:05;;;;;;;6.97;6.38;;;;;;;23.90;66.74;97338.88;4970419;28;20030;-77
2023/08/12 05:38:30;;;;;;;6.45;5.80;;;;;;;23.91;66.31;97335.91;4959314;28;20105;-77
2023/08/12 05:40:55;;;;;;;6.07;5.47;;;;;;;23.97;66.24;97333.81;4950507;29;20635;-77
2023/08/12 05:43:21;;;;;;;5.57;4.93;;;;;;;24.02;66.58;97338.91;4937566;28;20046;-78
2023/08/12 05:45:47;;;;;;;6.07;5.57;;;;;;;24.10;66.81;97340.72;4970514;28;20073;-78
2023/08/12 05:48:13;;;;;;;6.53;5.93;;;;;;;24.17;66.40;97344.75;4920859;29;20427;-77
2023/08/12 05:50:38;;;;;;;7.22;6.53;;;;;;;24.17;66.29;97347.41;4967201;28;20112;-77
2023/08/12 05:53:04;;;;;;;5.72;5.22;;;;;;;24.18;66.03;97351.59;4951713;29;20240;-77
2023/08/12 05:55:29;;;;;;;6.18;5.57;;;;;;;24.22;66.09;97358.59;4951663;29;20035;-86
2023/08/12 05:57:54;;;;;;;5.90;5.40;;;;;;;24.22;66.20;97357.84;4968771;28;20039;-86
2023/08/12 06:00:20;;;;;;;6.70;6.03;;;;;;;24.25;66.54;97354.53;4938725;28;20454;-88
2023/08/12 06:02:45;;;;;;;6.25;5.75;;;;;;;24.28;66.13;97357.28;4936090;29;20028;-87
2023/08/12 06:05:11;;;;;;;6.07;5.55;;;;;;;24.31;66.63;97361.16;4951933;28;20061;-84
2023/08/12 06:07:36;;;;;;;5.93;5.43;;;;;;;24.33;66.42;97361.59;4951722;29;20034;-85
2023/08/12 06:10:02;;;;;;;5.10;4.72;;;;;;;24.35;66.32;97359.41;4951963;28;20035;-86
2023/08/12 06:12:27;;;;;;;6.65;6.15;;;;;;;24.39;66.39;97356.88;4955958;28;20023;-86
2023/08/12 06:14:52;;;;;;;5.90;5.40;;;;;;;24.42;66.31;97364.19;4956360;28;20039;-85
2023/08/12 06:17:18;;;;;;;6.68;5.45;;;;;;;24.45;67.11;97364.31;4939765;28;20039;-86
2023/08/12 06:19:43;;;;;;;6.38;5.78;;;;;;;24.57;66.33;97360.13;4949072;29;20031;-86
2023/08/12 06:22:08;;;;;;;6.22;5.72;;;;;;;24.60;66.75;97370.13;4952848;28;20031;-85
2023/08/12 06:24:34;;;;;;;6.68;6.03;;;;;;;24.63;66.24;97366.81;4939251;28;20391;-87
2023/08/12 06:26:59;;;;;;;5.85;5.35;;;;;;;24.64;66.16;97363.81;4954697;28;20057;-87
2023/08/12 06:29:24;;;;;;;6.47;5.82;;;;;;;24.70;66.42;97359.03;4943876;28;20042;-86
2023/08/12 06:31:50;;;;;;;6.13;5.32;;;;;;;24.75;65.61;97366.81;4934931;29;20039;-86
2023/08/12 06:34:15;;;;;;;6.30;5.70;;;;;;;24.77;65.97;97361.91;4955060;28;20120;-85
2023/08/12 06:36:41;;;;;;;6.70;6.10;;;;;;;24.83;66.52;97363.25;4958157;28;20450;-83
2023/08/12 06:39:06;;;;;;;6.78;6.13;;;;;;;24.90;66.57;97357.38;4941480;28;20121;-86
2023/08/12 06:41:32;;;;;;;5.75;5.25;;;;;;;24.96;65.86;97347.28;4956869;28;20050;-86
2023/08/12 06:43:57;;;;;;;6.70;6.00;;;;;;;25.07;65.66;97356.38;4932837;28;20094;-88
2023/08/12 06:46:22;;;;;;;6.07;5.57;;;;;;;25.11;66.54;97357.25;4971280;28;20039;-87
2023/08/12 06:48:48;;;;;;;5.85;5.40;;;;;;;25.16;66.20;97359.69;4955719;29;20035;-87
2023/08/12 06:51:13;;;;;;;6.50;5.90;;;;;;;25.20;66.74;97351.78;4952837;29;20074;-86
2023/08/12 06:53:39;;;;;;;6.63;5.75;;;;;;;25.29;66.22;97357.03;4942073;28;20035;-88
2023/08/12 06:56:05;;;;;;;6.35;5.85;;;;;;;25.36;65.69;97362.56;4955545;28;20442;-85
2023/08/12 06:58:31;;;;;;;5.78;5.28;;;;;;;25.41;65.35;97370.31;4955772;29;20053;-86
2023/08/12 07:00:56;;;;;;;5.88;5.43;;;;;;;25.46;65.05;97372.75;4947084;29;20470;-86
2023/08/12 07:03:22;;;;;;;6.32;5.80;;;;;;;25.49;65.06;97379.31;4941524;29;20042;-88
2023/08/12 07:05:48;;;;;;;6.25;5.72;;;;;;;25.49;65.45;97382.75;4957040;28;20050;-78
2023/08/12 07:08:13;;;;;;;6.45;5.85;;;;;;;25.57;65.32;97378.41;4969672;28;20390;-78
2023/08/12 07:10:39;;;;;;;6.13;5.53;;;;;;;25.67;64.92;97371.81;4953193;28;20117;-79
2023/08/12 07:13:05;;;;;;;6.00;5.50;;;;;;;25.86;64.79;97377.31;4953676;28;20031;-77
2023/08/12 07:15:30;;;;;;;6.28;5.72;;;;;;;25.96;64.73;97371.50;4953985;28;20042;-77
2023/08/12 07:17:57;;;;;;;6.25;5.75;;;;;;;26.12;64.50;97371.53;4953441;28;20038;-77
2023/08/12 07:20:24;;;;;;;5.80;5.30;;;;;;;26.44;63.07;97366.25;4952945;28;20533;-78
2023/08/12 07:22:49;;;;;;;5.57;5.10;;;;;;;26.64;62.13;97363.69;4953072;28;20038;-78
2023/08/12 07:25:15;;;;;;;5.45;5.03;;;;;;;26.95;61.23;97368.22;4967135;28;20387;-78
2023/08/12 07:27:40;;;;;;;5.25;4.78;;;;;;;27.24;59.75;97374.97;4934500;29;20183;-78
2023/08/12 07:30:07;;;;;;;5.25;4.75;;;;;;;27.44;60.30;97369.69;4933693;29;20038;-77
2023/08/12 07:32:33;;;;;;;5.90;5.40;;;;;;;27.67;58.14;97379.69;4933764;29;20038;-78
2023/08/12 07:34:58;;;;;;;5.20;4.80;;;;;;;27.76;58.51;97377.56;4949838;29;20031;-78
2023/08/12 07:37:24;;;;;;;5.32;4.88;;;;;;;27.92;57.53;97372.97;4950076;28;20057;-77
2023/08/12 07:39:49;;;;;;;5.53;4.93;;;;;;;27.83;56.92;97377.75;4949716;29;20038;-77
2023/08/12 07:42:14;;;;;;;6.35;5.75;;;;;;;27.82;57.23;97386.88;4964193;28;20121;-78
2023/08/12 07:44:40;;;;;;;5.22;4.72;;;;;;;27.66;58.53;97394.97;4917958;29;20036;-77
2023/08/12 07:47:05;;;;;;;5.63;4.45;;;;;;;27.52;57.60;97384.78;4949892;29;20027;-77
2023/08/12 07:49:30;;;;;;;4.53;4.13;;;;;;;27.53;57.57;97404.25;4933017;29;20581;-78
2023/08/12 07:51:56;;;;;;;5.75;4.78;;;;;;;27.33;59.41;97398.88;4950322;29;20098;-77
2023/08/12 07:54:21;;;;;;;5.20;4.70;;;;;;;27.31;59.25;97393.09;4965515;28;20035;-78
2023/08/12 07:56:47;;;;;;;5.05;4.65;;;;;;;27.26;59.38;97388.00;4966350;28;20034;-77
2023/08/12 07:59:12;;;;;;;4.88;4.47;;;;;;;27.27;59.33;97384.97;4952697;28;20039;-78
2023/08/12 08:01:38;;;;;;;5.25;4.85;;;;;;;27.46;59.23;97376.22;4935846;28;20070;-77
2023/08/12 08:04:03;;;;;;;4.35;4.05;;;;;;;27.79;57.78;97372.28;4952103;28;20093;-77
2023/08/12 08:06:29;;;;;;;5.38;4.88;;;;;;;28.07;56.80;97374.00;4965795;28;20047;-78
2023/08/12 08:08:55;;;;;;;4.70;4.18;;;;;;;28.17;56.10;97372.63;4952384;28;20117;-78
2023/08/12 08:11:21;;;;;;;5.07;3.97;;;;;;;28.11;56.79;97372.16;4952508;28;20340;-78
2023/08/12 08:13:46;;;;;;;4.93;4.32;;;;;;;28.26;55.55;97372.41;4936313;28;20538;-77
2023/08/12 08:16:11;;;;;;;6.80;3.97;;;;;;;28.61;54.82;97372.25;4967690;28;20117;-78
2023/08/12 08:18:37;;;;;;;4.68;4.28;;;;;;;28.79;53.93;97367.19;4933832;29;20094;-77
2023/08/12 08:21:02;;;;;;;4.93;4.00;;;;;;;28.80;54.31;97360.69;4948857;29;20145;-77
2023/08/12 08:23:28;;;;;;;5.32;4.82;;;;;;;28.75;56.36;97361.00;4936227;28;20054;-78
2023/08/12 08:25:53;;;;;;;4.80;4.10;;;;;;;28.90;54.89;97360.06;4945205;29;20510;-78
2023/08/12 08:28:18;;;;;;;4.32;3.95;;;;;;;29.11;55.69;97367.63;4968022;28;20042;-77
2023/08/12 08:30:44;;;;;;;4.88;4.38;;;;;;;29.48;52.38;97363.56;4952321;28;20034;-77
2023/08/12 08:33:09;;;;;;;4.47;4.07;;;;;;;29.61;52.00;97356.84;4936428;28;20037;-77
2023/08/12 08:35:34;;;;;;;4.63;4.22;;;;;;;29.61;52.28;97343.41;4967970;28;20035;-77
2023/08/12 08:38:00;;;;;;;4.38;3.97;;;;;;;29.96;51.12;97339.59;4952167;28;20034;-77
2023/08/12 08:40:25;;;;;;;4.72;3.92;;;;;;;30.09;49.79;97342.00;4948265;28;20549;-77
2023/08/12 08:42:53;;;;;;;4.63;4.13;;;;;;;30.35;50.04;97336.53;4944088;29;20038;-77
2023/08/12 08:45:19;;;;;;;4.20;3.80;;;;;;;30.44;49.72;97357.72;4935550;28;20031;-77
2023/08/12 08:47:45;;;;;;;3.95;3.55;;;;;;;30.22;50.08;97356.72;4943675;29;20487;-77
2023/08/12 08:50:10;;;;;;;4.97;4.13;;;;;;;30.33;48.29;97349.53;4942406;29;20114;-78
2023/08/12 08:52:37;;;;;;;4.68;3.88;;;;;;;30.48;50.80;97347.75;4952355;28;20348;-77
2023/08/12 08:55:04;;;;;;;4.68;3.65;;;;;;;30.78;48.08;97352.22;4939726;28;20089;-77
2023/08/12 08:57:30;;;;;;;4.40;4.00;;;;;;;30.95;47.87;97356.19;4953448;29;20066;-77
2023/08/12 08:59:55;;;;;;;4.07;3.78;;;;;;;31.01;47.50;97351.22;4938280;28;20494;-77
2023/08/12 09:02:21;;;;;;;4.43;4.03;;;;;;;31.15;47.65;97359.38;4960372;28;20051;-78
2023/08/12 09:04:47;;;;;;;4.78;4.15;;;;;;;31.00;47.65;97363.91;4955606;28;20039;-77
2023/08/12 09:07:16;;;;;;;4.90;4.03;;;;;;;31.13;47.55;97367.81;4970098;28;20505;-77
2023/08/12 09:09:45;;;;;;;4.43;4.03;;;;;;;31.34;47.10;97377.13;4952667;29;20038;-78
2023/08/12 09:12:14;;;;;;;4.45;4.05;;;;;;;31.36;46.74;97382.94;4936681;29;20120;-77
2023/08/12 09:14:39;;;;;;;4.13;3.72;;;;;;;31.24;46.05;97378.66;4952458;29;20043;-78
2023/08/12 09:17:04;;;;;;;4.13;3.72;;;;;;;31.10;46.48;97387.41;4960910;28;20533;-77
2023/08/12 09:19:30;;;;;;;5.00;4.50;;;;;;;30.76;47.30;97390.22;4971558;28;20492;-77
2023/08/12 09:21:55;;;;;;;5.07;3.88;;;;;;;30.59;46.83;97397.00;4956110;28;20427;-77
2023/08/12 09:24:27;;;;;;;5.43;4.70;;;;;;;30.25;48.44;97398.97;4921206;29;20027;-78
2023/08/12 09:26:55;;;;;;;4.90;4.40;;;;;;;30.00;49.75;97394.09;4955385;28;20047;-77
2023/08/12 09:29:29;;;;;;;5.13;4.22;;;;;;;29.81;49.63;97396.94;4970867;28;20521;-77
2023/08/12 09:32:05;;;;;;;4.88;4.38;;;;;;;29.60;50.64;97398.22;4955487;28;20065;-77
2023/08/12 09:34:31;;;;;;;4.20;3.90;;;;;;;29.38;50.75;97412.50;4971218;28;20156;-77
2023/08/12 09:36:56;;;;;;;4.00;3.70;;;;;;;29.09;50.90;97410.13;4939849;28;20506;-78
2023/08/12 09:39:21;;;;;;;5.15;4.65;;;;;;;28.83;52.45;97410.91;4938518;28;20042;-78
2023/08/12 09:41:47;;;;;;;5.32;4.55;;;;;;;28.72;53.14;97417.97;4957291;28;20038;-78
2023/08/12 09:44:13;;;;;;;4.82;4.40;;;;;;;28.52;53.31;97422.59;4952052;28;20035;-79
2023/08/12 09:46:38;;;;;;;4.80;4.40;;;;;;;28.26;53.31;97420.59;4968011;28;20047;-77
2023/08/12 09:49:04;;;;;;;4.38;3.95;;;;;;;28.15;53.94;97426.53;4936000;28;20027;-77
2023/08/12 09:51:35;;;;;;;5.68;5.28;;;;;;;27.99;55.10;97423.94;4968244;28;20525;-77
2023/08/12 09:54:01;;;;;;;5.25;4.85;;;;;;;27.64;57.44;97405.25;4955002;28;20039;-77
2023/08/12 09:56:28;;;;;;;5.15;4.65;;;;;;;27.62;57.38;97410.97;4970813;28;20029;-77
2023/08/12 09:58:53;;;;;;;5.78;5.03;;;;;;;27.56;57.47;97416.94;4971155;28;20077;-77
2023/08/12 10:01:20;;;;;;;6.20;5.40;;;;;;;27.42;59.38;97418.19;4967683;28;20055;-78
2023/08/12 10:03:50;;;;;;;5.97;5.55;;;;;;;27.33;59.73;97422.16;4952297;29;20035;-81
2023/08/12 10:06:15;;;;;;;6.45;5.85;;;;;;;27.29;60.63;97427.44;4950470;28;20515;-81
2023/08/12 10:08:41;;;;;;;6.82;5.72;;;;;;;27.01;62.04;97424.88;4954217;29;20075;-82
2023/08/12 10:11:08;;;;;;;6.63;6.03;;;;;;;26.87;62.49;97419.94;4948388;28;20516;-80
2023/08/12 10:13:33;;;;;;;6.22;5.72;;;;;;;26.70;62.90;97418.41;4959353;28;20125;-80
2023/08/12 10:16:00;;;;;;;5.40;4.93;;;;;;;26.59;62.31;97394.06;4941378;28;20447;-81
2023/08/12 10:18:27;;;;;;;5.15;4.65;;;;;;;26.44;63.02;97408.19;4956038;28;20093;-79
2023/08/12 10:20:53;;;;;;;6.32;5.25;;;;;;;26.29;64.41;97407.81;4956374;28;20418;-79
2023/08/12 10:23:18;;;;;;;5.50;5.00;;;;;;;26.27;64.45;97415.41;4951572;29;20088;-79
2023/08/12 10:25:44;;;;;;;6.93;6.32;;;;;;;26.33;64.90;97435.38;4954794;28;20034;-79
2023/08/12 10:28:11;;;;;;;6.35;5.78;;;;;;;26.26;64.95;97429.84;4955309;28;20057;-79
2023/08/12 10:30:37;;;;;;;9.23;6.45;;;;;;;26.00;65.86;97408.97;4971339;28;20091;-81
2023/08/12 10:33:03;;;;;;;6.68;6.07;;;;;;;25.95;66.07;97415.31;4951319;29;20063;-81
2023/08/12 10:35:42;;;;;;;6.55;5.95;;;;;;;26.07;65.80;97440.41;4938557;28;20057;-79
2023/08/12 10:38:08;;;;;;;6.30;5.70;;;;;;;25.90;66.25;97444.88;4936405;29;20095;-80
2023/08/12 10:40:33;;;;;;;5.80;5.22;;;;;;;25.84;65.67;97458.78;4936384;29;20046;-79
2023/08/12 10:42:59;;;;;;;7.07;6.40;;;;;;;25.73;65.84;97463.81;4947230;28;20028;-80
2023/08/12 10:45:41;;;;;;;6.40;5.90;;;;;;;25.73;65.74;97461.13;4972995;28;20487;-80
2023/08/12 10:48:17;;;;;;;7.70;6.97;;;;;;;25.56;66.51;97438.94;4971731;28;20113;-80
2023/08/12 10:50:52;;;;;;;7.57;6.88;;;;;;;25.39;67.49;97420.53;4960757;28;20031;-79
2023/08/12 10:53:32;;;;;;;7.50;6.80;;;;;;;25.46;67.21;97426.06;4957446;28;20031;-79
2023/08/12 10:56:03;;;;;;;7.75;6.97;;;;;;;25.40;68.28;97416.75;4957279;28;20030;-79
2023/08/12 10:59:01;;;;;;;7.00;6.40;;;;;;;25.47;68.35;97406.31;4952850;29;20039;-77
2023/08/12 11:01:30;;;;;;;7.32;6.72;;;;;;;25.42;68.87;97385.97;4929926;28;20051;-79
2023/08/12 11:03:57;;;;;;;7.88;7.10;;;;;;;25.45;68.98;97378.41;4935271;29;20594;-79
2023/08/12 11:06:23;;;;;;;8.35;7.65;;;;;;;25.88;69.56;97367.06;4951946;29;20045;-79
2023/08/12 11:08:52;;;;;;;7.85;7.05;;;;;;;26.22;68.79;97356.94;4952117;29;20550;-79
2023/08/12 11:11:24;;;;;;;8.77;7.50;;;;;;;26.30;68.90;97334.63;4951893;29;20067;-77
2023/08/12 11:13:54;;;;;;;9.02;8.13;;;;;;;26.78;68.44;97325.84;4969863;28;20039;-77
2023/08/12 11:16:31;;;;;;;7.03;6.50;;;;;;;27.41;67.60;97335.63;4936357;28;20065;-77
2023/08/12 11:18:57;;;;;;;7.43;6.72;;;;;;;27.62;67.69;97341.41;4953200;29;20127;-77
2023/08/12 11:21:22;;;;;;;6.40;5.90;;;;;;;27.95;65.82;97352.72;4968134;28;20118;-77
2023/08/12 11:23:48;;;;;;;5.90;5.38;;;;;;;27.87;64.80;97356.41;4940747;28;20062;-76
2023/08/12 11:26:14;;;;;;;5.78;5.28;;;;;;;27.68;63.49;97367.88;4978955;28;20039;-79
2023/08/12 11:28:40;;;;;;;5.22;4.72;;;;;;;27.36;64.16;97371.44;4968980;28;20071;-77
2023/08/12 11:31:05;;;;;;;6.60;5.95;;;;;;;27.10;64.13;97353.28;4935838;28;20118;-77
2023/08/12 11:33:31;;;;;;;5.38;4.97;;;;;;;26.99;65.25;97349.59;4955125;28;20058;-77
2023/08/12 11:35:56;;;;;;;6.00;5.50;;;;;;;27.02;65.93;97363.03;4938965;28;20034;-76
2023/08/12 11:38:22;;;;;;;6.70;6.13;;;;;;;27.13;66.57;97351.81;4969882;28;20041;-78
2023/08/12 11:40:47;;;;;;;6.00;5.60;;;;;;;27.34;67.53;97356.88;4953187;28;20038;-77
2023/08/12 11:43:12;;;;;;;6.75;5.75;;;;;;;27.86;65.00;97357.50;4942315;28;20115;-77
2023/08/12 11:45:41;;;;;;;5.70;5.20;;;;;;;28.24;64.78;97353.25;4953606;28;20039;-77
2023/08/12 11:48:07;;;;;;;5.47;4.97;;;;;;;28.52;64.98;97344.94;4962959;28;20034;-84
2023/08/12 11:50:33;;;;;;;6.00;5.45;;;;;;;28.55;60.68;97353.03;4955285;28;20030;-81
2023/08/12 11:52:58;;;;;;;5.10;4.70;;;;;;;28.77;61.69;97348.00;4960259;28;20035;-84
2023/08/12 11:55:24;;;;;;;4.95;4.55;;;;;;;29.24;58.82;97354.84;4954262;28;20038;-86